sensor_id;sensor_type;location;lat;lon;timestamp;pressure;altitude;pressure_sealevel;temperature;humidity
44127;BME280;29786;50.798;7.302;2022-09-09T00:00:32;98570;;;16.37;100
44127;BME280;29786;50.798;7.302;2022-09-09T00:01:35;98570;;;16.28;100
44127;BME280;29786;50.798;7.302;2022-09-09T00:02:32;98570;;;16.29;100
44127;BME280;29786;50.798;7.302;2022-09-09T00:03:38;98560;;;16.31;100
44127;BME280;29786;50.798;7.302;2022-09-09T00:04:33;98570;;;16.37;100
44127;BME280;29786;50.798;7.302;2022-09-09T00:05:35;98570;;;16.45;100
44127;BME280;29786;50.798;7.302;2022-09-09T00:06:34;98570;;;16.46;100
44127;BME280;29786;50.798;7.302;2022-09-09T00:07:37;98560;;;16.49;100
44127;BME280;29786;50.798;7.302;2022-09-09T00:08:36;98560;;;16.32;100
44127;BME280;29786;50.798;7.302;2022-09-09T00:09:35;98560;;;16.33;100
44127;BME280;29786;50.798;7.302;2022-09-09T00:10:34;98560;;;16.35;100
44127;BME280;29786;50.798;7.302;2022-09-09T00:11:40;98560;;;16.36;100
44127;BME280;29786;50.798;7.302;2022-09-09T00:12:36;98560;;;16.37;100
44127;BME280;29786;50.798;7.302;2022-09-09T00:13:48;98560;;;16.32;100
44127;BME280;29786;50.798;7.302;2022-09-09T00:14:51;98560;;;16.34;100
44127;BME280;29786;50.798;7.302;2022-09-09T00:15:38;98560;;;16.29;100
44127;BME280;29786;50.798;7.302;2022-09-09T00:16:32;98560;;;16.29;100
44127;BME280;29786;50.798;7.302;2022-09-09T00:17:35;98560;;;16.31;100
44127;BME280;29786;50.798;7.302;2022-09-09T00:19:33;98560;;;16.35;100
44127;BME280;29786;50.798;7.302;2022-09-09T00:20:36;98560;;;16.29;100
44127;BME280;29786;50.798;7.302;2022-09-09T00:21:33;98560;;;16.33;100
44127;BME280;29786;50.798;7.302;2022-09-09T00:22:32;98560;;;16.31;100
44127;BME280;29786;50.798;7.302;2022-09-09T00:23:33;98570;;;16.29;100
44127;BME280;29786;50.798;7.302;2022-09-09T00:24:40;98570;;;16.37;100
44127;BME280;29786;50.798;7.302;2022-09-09T00:25:34;98570;;;16.4;100
44127;BME280;29786;50.798;7.302;2022-09-09T00:26:38;98570;;;16.44;100
44127;BME280;29786;50.798;7.302;2022-09-09T00:27:41;98570;;;16.44;100
44127;BME280;29786;50.798;7.302;2022-09-09T00:28:33;98560;;;16.45;100
44127;BME280;29786;50.798;7.302;2022-09-09T00:29:33;98560;;;16.52;100
44127;BME280;29786;50.798;7.302;2022-09-09T00:30:34;98570;;;16.52;100
44127;BME280;29786;50.798;7.302;2022-09-09T00:31:32;98560;;;16.44;100
44127;BME280;29786;50.798;7.302;2022-09-09T00:32:32;98570;;;16.31;100
44127;BME280;29786;50.798;7.302;2022-09-09T00:33:32;98570;;;16.34;100
44127;BME280;29786;50.798;7.302;2022-09-09T00:34:32;98570;;;16.33;100
44127;BME280;29786;50.798;7.302;2022-09-09T00:35:33;98560;;;16.33;100
44127;BME280;29786;50.798;7.302;2022-09-09T00:36:32;98570;;;16.32;100
44127;BME280;29786;50.798;7.302;2022-09-09T00:37:32;98560;;;16.24;100
44127;BME280;29786;50.798;7.302;2022-09-09T00:38:34;98560;;;16.2;100
44127;BME280;29786;50.798;7.302;2022-09-09T00:39:33;98560;;;16.07;100
44127;BME280;29786;50.798;7.302;2022-09-09T00:40:33;98560;;;16.04;100
44127;BME280;29786;50.798;7.302;2022-09-09T00:41:39;98560;;;16;100
44127;BME280;29786;50.798;7.302;2022-09-09T00:42:39;98550;;;15.98;100
44127;BME280;29786;50.798;7.302;2022-09-09T00:43:32;98560;;;16.04;100
44127;BME280;29786;50.798;7.302;2022-09-09T00:44:33;98560;;;16.08;100
44127;BME280;29786;50.798;7.302;2022-09-09T00:45:36;98550;;;16.18;100
44127;BME280;29786;50.798;7.302;2022-09-09T00:46:50;98550;;;16.16;100
44127;BME280;29786;50.798;7.302;2022-09-09T00:47:44;98550;;;16.17;100
44127;BME280;29786;50.798;7.302;2022-09-09T00:48:35;98550;;;16.09;100
44127;BME280;29786;50.798;7.302;2022-09-09T00:49:52;98560;;;16.04;100
44127;BME280;29786;50.798;7.302;2022-09-09T00:50:35;98550;;;16.03;100
44127;BME280;29786;50.798;7.302;2022-09-09T00:51:43;98560;;;16.04;100
44127;BME280;29786;50.798;7.302;2022-09-09T00:52:38;98550;;;16.04;100
44127;BME280;29786;50.798;7.302;2022-09-09T00:53:36;98550;;;16;100
44127;BME280;29786;50.798;7.302;2022-09-09T00:54:35;98550;;;15.95;100
44127;BME280;29786;50.798;7.302;2022-09-09T00:56:37;98550;;;16.03;100
44127;BME280;29786;50.798;7.302;2022-09-09T00:56:37;98550;;;15.96;100
44127;BME280;29786;50.798;7.302;2022-09-09T00:57:32;98560;;;16.02;100
44127;BME280;29786;50.798;7.302;2022-09-09T00:58:32;98560;;;15.91;100
44127;BME280;29786;50.798;7.302;2022-09-09T00:59:35;98560;;;15.92;100
44127;BME280;29786;50.798;7.302;2022-09-09T01:00:35;98560;;;15.85;100
44127;BME280;29786;50.798;7.302;2022-09-09T01:01:32;98560;;;15.85;100
44127;BME280;29786;50.798;7.302;2022-09-09T01:02:36;98560;;;15.84;100
44127;BME280;29786;50.798;7.302;2022-09-09T01:03:34;98560;;;15.8;100
44127;BME280;29786;50.798;7.302;2022-09-09T01:04:33;98560;;;15.78;100
44127;BME280;29786;50.798;7.302;2022-09-09T01:05:35;98570;;;15.74;100
44127;BME280;29786;50.798;7.302;2022-09-09T01:06:33;98570;;;15.85;100
44127;BME280;29786;50.798;7.302;2022-09-09T01:07:32;98570;;;15.88;100
44127;BME280;29786;50.798;7.302;2022-09-09T01:08:36;98570;;;15.84;100
44127;BME280;29786;50.798;7.302;2022-09-09T01:09:33;98570;;;15.78;100
44127;BME280;29786;50.798;7.302;2022-09-09T01:10:36;98570;;;15.81;100
44127;BME280;29786;50.798;7.302;2022-09-09T01:11:36;98570;;;15.86;100
44127;BME280;29786;50.798;7.302;2022-09-09T01:12:34;98580;;;15.88;100
44127;BME280;29786;50.798;7.302;2022-09-09T01:13:33;98570;;;15.89;100
44127;BME280;29786;50.798;7.302;2022-09-09T01:14:44;98570;;;15.94;100
44127;BME280;29786;50.798;7.302;2022-09-09T01:15:32;98570;;;15.88;100
44127;BME280;29786;50.798;7.302;2022-09-09T01:16:32;98570;;;15.94;100
44127;BME280;29786;50.798;7.302;2022-09-09T01:17:34;98560;;;15.95;100
44127;BME280;29786;50.798;7.302;2022-09-09T01:18:33;98560;;;16.01;100
44127;BME280;29786;50.798;7.302;2022-09-09T01:19:58;98560;;;16.02;100
44127;BME280;29786;50.798;7.302;2022-09-09T01:20:44;98560;;;16.01;100
44127;BME280;29786;50.798;7.302;2022-09-09T01:21:50;98570;;;16.08;100
44127;BME280;29786;50.798;7.302;2022-09-09T01:22:35;98570;;;16.07;100
44127;BME280;29786;50.798;7.302;2022-09-09T01:23:36;98570;;;16.12;100
44127;BME280;29786;50.798;7.302;2022-09-09T01:26:08;98570;;;16.11;100
44127;BME280;29786;50.798;7.302;2022-09-09T01:26:41;98570;;;16.04;100
44127;BME280;29786;50.798;7.302;2022-09-09T01:27:32;98560;;;16.02;100
44127;BME280;29786;50.798;7.302;2022-09-09T01:28:32;98560;;;16.09;100
44127;BME280;29786;50.798;7.302;2022-09-09T01:29:32;98570;;;16.03;100
44127;BME280;29786;50.798;7.302;2022-09-09T01:30:32;98570;;;16.11;100
44127;BME280;29786;50.798;7.302;2022-09-09T01:31:41;98560;;;16.1;100
44127;BME280;29786;50.798;7.302;2022-09-09T01:32:37;98570;;;16.12;100
44127;BME280;29786;50.798;7.302;2022-09-09T01:33:32;98560;;;16.14;100
44127;BME280;29786;50.798;7.302;2022-09-09T01:34:33;98570;;;16.12;100
44127;BME280;29786;50.798;7.302;2022-09-09T01:35:37;98560;;;16.12;100
44127;BME280;29786;50.798;7.302;2022-09-09T01:36:35;98570;;;16.2;100
44127;BME280;29786;50.798;7.302;2022-09-09T01:37:32;98570;;;16.16;100
44127;BME280;29786;50.798;7.302;2022-09-09T01:38:32;98570;;;16.12;100
44127;BME280;29786;50.798;7.302;2022-09-09T01:39:33;98570;;;16.07;100
44127;BME280;29786;50.798;7.302;2022-09-09T01:40:32;98560;;;16.07;100
44127;BME280;29786;50.798;7.302;2022-09-09T01:41:32;98560;;;16.2;100
44127;BME280;29786;50.798;7.302;2022-09-09T01:42:32;98560;;;16.26;100
44127;BME280;29786;50.798;7.302;2022-09-09T01:43:32;98560;;;16.28;100
44127;BME280;29786;50.798;7.302;2022-09-09T01:44:32;98560;;;16.24;100
44127;BME280;29786;50.798;7.302;2022-09-09T01:45:32;98560;;;16.26;100
44127;BME280;29786;50.798;7.302;2022-09-09T01:46:32;98560;;;16.24;100
44127;BME280;29786;50.798;7.302;2022-09-09T01:47:32;98560;;;16.23;100
44127;BME280;29786;50.798;7.302;2022-09-09T01:48:32;98570;;;16.24;100
44127;BME280;29786;50.798;7.302;2022-09-09T01:49:32;98570;;;16.24;100
44127;BME280;29786;50.798;7.302;2022-09-09T01:50:32;98570;;;16.2;100
44127;BME280;29786;50.798;7.302;2022-09-09T01:51:32;98560;;;16.23;100
44127;BME280;29786;50.798;7.302;2022-09-09T01:52:32;98570;;;16.21;100
44127;BME280;29786;50.798;7.302;2022-09-09T01:53:32;98570;;;16.23;100
44127;BME280;29786;50.798;7.302;2022-09-09T01:54:32;98560;;;16.21;100
44127;BME280;29786;50.798;7.302;2022-09-09T01:55:33;98570;;;16.19;100
44127;BME280;29786;50.798;7.302;2022-09-09T01:56:40;98560;;;16.19;100
44127;BME280;29786;50.798;7.302;2022-09-09T01:57:33;98570;;;16.1;100
44127;BME280;29786;50.798;7.302;2022-09-09T01:58:40;98570;;;16.08;100
44127;BME280;29786;50.798;7.302;2022-09-09T02:00:06;98570;;;16.08;100
44127;BME280;29786;50.798;7.302;2022-09-09T02:00:32;98570;;;16.12;100
44127;BME280;29786;50.798;7.302;2022-09-09T02:01:35;98570;;;16.12;100
44127;BME280;29786;50.798;7.302;2022-09-09T02:02:35;98570;;;16.18;100
44127;BME280;29786;50.798;7.302;2022-09-09T02:03:32;98570;;;16.24;100
44127;BME280;29786;50.798;7.302;2022-09-09T02:04:35;98560;;;16.19;100
44127;BME280;29786;50.798;7.302;2022-09-09T02:05:40;98570;;;16.18;100
44127;BME280;29786;50.798;7.302;2022-09-09T02:06:36;98560;;;16.2;100
44127;BME280;29786;50.798;7.302;2022-09-09T02:07:36;98570;;;16.34;100
44127;BME280;29786;50.798;7.302;2022-09-09T02:08:35;98570;;;16.29;100
44127;BME280;29786;50.798;7.302;2022-09-09T02:09:32;98570;;;16.31;100
44127;BME280;29786;50.798;7.302;2022-09-09T02:11:05;98570;;;16.39;100
44127;BME280;29786;50.798;7.302;2022-09-09T02:11:32;98570;;;16.43;100
44127;BME280;29786;50.798;7.302;2022-09-09T02:12:32;98570;;;16.46;100
44127;BME280;29786;50.798;7.302;2022-09-09T02:13:32;98570;;;16.37;100
44127;BME280;29786;50.798;7.302;2022-09-09T02:14:34;98570;;;16.27;100
44127;BME280;29786;50.798;7.302;2022-09-09T02:15:34;98570;;;16.26;100
44127;BME280;29786;50.798;7.302;2022-09-09T02:16:35;98570;;;16.35;100
44127;BME280;29786;50.798;7.302;2022-09-09T02:17:33;98570;;;16.35;100
44127;BME280;29786;50.798;7.302;2022-09-09T02:18:37;98570;;;16.25;100
44127;BME280;29786;50.798;7.302;2022-09-09T02:19:32;98570;;;16.2;100
44127;BME280;29786;50.798;7.302;2022-09-09T02:20:32;98570;;;16.19;100
44127;BME280;29786;50.798;7.302;2022-09-09T02:21:32;98570;;;16.17;100
44127;BME280;29786;50.798;7.302;2022-09-09T02:22:32;98560;;;16.2;100
44127;BME280;29786;50.798;7.302;2022-09-09T02:23:32;98570;;;16.23;100
44127;BME280;29786;50.798;7.302;2022-09-09T02:24:34;98570;;;16.2;100
44127;BME280;29786;50.798;7.302;2022-09-09T02:25:32;98570;;;16.2;100
44127;BME280;29786;50.798;7.302;2022-09-09T02:26:32;98560;;;16.16;100
44127;BME280;29786;50.798;7.302;2022-09-09T02:27:32;98570;;;16.12;100
44127;BME280;29786;50.798;7.302;2022-09-09T02:28:32;98570;;;16.15;100
44127;BME280;29786;50.798;7.302;2022-09-09T02:29:34;98560;;;16.06;100
44127;BME280;29786;50.798;7.302;2022-09-09T02:30:32;98570;;;16.06;100
44127;BME280;29786;50.798;7.302;2022-09-09T02:31:32;98560;;;16.12;100
44127;BME280;29786;50.798;7.302;2022-09-09T02:32:32;98560;;;16.2;100
44127;BME280;29786;50.798;7.302;2022-09-09T02:33:35;98570;;;16.17;100
44127;BME280;29786;50.798;7.302;2022-09-09T02:34:33;98570;;;16.18;100
44127;BME280;29786;50.798;7.302;2022-09-09T02:35:32;98570;;;16.2;100
44127;BME280;29786;50.798;7.302;2022-09-09T02:36:32;98570;;;16.24;100
44127;BME280;29786;50.798;7.302;2022-09-09T02:37:34;98570;;;16.26;100
44127;BME280;29786;50.798;7.302;2022-09-09T02:38:34;98570;;;16.25;100
44127;BME280;29786;50.798;7.302;2022-09-09T02:39:32;98570;;;16.26;100
44127;BME280;29786;50.798;7.302;2022-09-09T02:40:32;98570;;;16.17;100
44127;BME280;29786;50.798;7.302;2022-09-09T02:41:33;98570;;;16.09;100
44127;BME280;29786;50.798;7.302;2022-09-09T02:42:32;98570;;;16.12;100
44127;BME280;29786;50.798;7.302;2022-09-09T02:43:32;98570;;;16.12;100
44127;BME280;29786;50.798;7.302;2022-09-09T02:44:32;98580;;;16.08;100
44127;BME280;29786;50.798;7.302;2022-09-09T02:45:35;98580;;;16.1;100
44127;BME280;29786;50.798;7.302;2022-09-09T02:47:25;98580;;;16.04;100
44127;BME280;29786;50.798;7.302;2022-09-09T02:47:35;98570;;;16.08;100
44127;BME280;29786;50.798;7.302;2022-09-09T02:48:35;98570;;;16.16;100
44127;BME280;29786;50.798;7.302;2022-09-09T02:49:40;98570;;;16.2;100
44127;BME280;29786;50.798;7.302;2022-09-09T02:50:33;98570;;;16.2;100
44127;BME280;29786;50.798;7.302;2022-09-09T02:51:37;98570;;;16.31;100
44127;BME280;29786;50.798;7.302;2022-09-09T02:53:06;98570;;;16.15;100
44127;BME280;29786;50.798;7.302;2022-09-09T02:53:36;98560;;;16.15;100
44127;BME280;29786;50.798;7.302;2022-09-09T02:54:33;98570;;;16.17;100
44127;BME280;29786;50.798;7.302;2022-09-09T02:55:35;98560;;;16.33;100
44127;BME280;29786;50.798;7.302;2022-09-09T02:56:32;98570;;;16.27;100
44127;BME280;29786;50.798;7.302;2022-09-09T02:57:32;98560;;;16.21;100
44127;BME280;29786;50.798;7.302;2022-09-09T02:58:32;98560;;;16.19;100
44127;BME280;29786;50.798;7.302;2022-09-09T02:59:32;98560;;;16.12;100
44127;BME280;29786;50.798;7.302;2022-09-09T03:00:32;98560;;;16.12;100
44127;BME280;29786;50.798;7.302;2022-09-09T03:01:32;98560;;;16.12;100
44127;BME280;29786;50.798;7.302;2022-09-09T03:02:32;98550;;;16.09;100
44127;BME280;29786;50.798;7.302;2022-09-09T03:03:32;98550;;;16.12;100
44127;BME280;29786;50.798;7.302;2022-09-09T03:04:32;98560;;;16.18;100
44127;BME280;29786;50.798;7.302;2022-09-09T03:05:32;98550;;;16.14;100
44127;BME280;29786;50.798;7.302;2022-09-09T03:06:32;98550;;;16.12;100
44127;BME280;29786;50.798;7.302;2022-09-09T03:07:32;98550;;;16.08;100
44127;BME280;29786;50.798;7.302;2022-09-09T03:08:32;98550;;;16.02;100
44127;BME280;29786;50.798;7.302;2022-09-09T03:09:32;98550;;;16.03;100
44127;BME280;29786;50.798;7.302;2022-09-09T03:10:32;98550;;;16.03;100
44127;BME280;29786;50.798;7.302;2022-09-09T03:11:32;98550;;;16.09;100
44127;BME280;29786;50.798;7.302;2022-09-09T03:12:32;98550;;;16.12;100
44127;BME280;29786;50.798;7.302;2022-09-09T03:13:32;98550;;;16.11;100
44127;BME280;29786;50.798;7.302;2022-09-09T03:14:32;98550;;;16.12;100
44127;BME280;29786;50.798;7.302;2022-09-09T03:15:32;98550;;;16.16;100
44127;BME280;29786;50.798;7.302;2022-09-09T03:16:32;98560;;;16.18;100
44127;BME280;29786;50.798;7.302;2022-09-09T03:17:32;98550;;;16.11;100
44127;BME280;29786;50.798;7.302;2022-09-09T03:18:32;98550;;;16.07;100
44127;BME280;29786;50.798;7.302;2022-09-09T03:19:32;98550;;;16.04;100
44127;BME280;29786;50.798;7.302;2022-09-09T03:20:32;98550;;;16.09;100
44127;BME280;29786;50.798;7.302;2022-09-09T03:21:32;98550;;;16.09;100
44127;BME280;29786;50.798;7.302;2022-09-09T03:22:32;98550;;;16.14;100
44127;BME280;29786;50.798;7.302;2022-09-09T03:23:32;98560;;;16.14;100
44127;BME280;29786;50.798;7.302;2022-09-09T03:24:32;98550;;;16.2;100
44127;BME280;29786;50.798;7.302;2022-09-09T03:25:32;98550;;;16.24;100
44127;BME280;29786;50.798;7.302;2022-09-09T03:26:32;98550;;;16.18;100
44127;BME280;29786;50.798;7.302;2022-09-09T03:27:32;98550;;;16.18;100
44127;BME280;29786;50.798;7.302;2022-09-09T03:28:32;98550;;;16.19;100
44127;BME280;29786;50.798;7.302;2022-09-09T03:29:32;98550;;;16.1;100
44127;BME280;29786;50.798;7.302;2022-09-09T03:30:32;98550;;;16.15;100
44127;BME280;29786;50.798;7.302;2022-09-09T03:31:33;98550;;;16.16;100
44127;BME280;29786;50.798;7.302;2022-09-09T03:32:32;98550;;;16.25;100
44127;BME280;29786;50.798;7.302;2022-09-09T03:33:32;98550;;;16.19;100
44127;BME280;29786;50.798;7.302;2022-09-09T03:34:32;98550;;;16.27;100
44127;BME280;29786;50.798;7.302;2022-09-09T03:35:32;98550;;;16.25;100
44127;BME280;29786;50.798;7.302;2022-09-09T03:36:32;98550;;;16.25;100
44127;BME280;29786;50.798;7.302;2022-09-09T03:37:32;98550;;;16.26;100
44127;BME280;29786;50.798;7.302;2022-09-09T03:38:32;98550;;;16.21;100
44127;BME280;29786;50.798;7.302;2022-09-09T03:39:32;98550;;;16.12;100
44127;BME280;29786;50.798;7.302;2022-09-09T03:40:32;98560;;;16.07;100
44127;BME280;29786;50.798;7.302;2022-09-09T03:41:32;98550;;;16.02;100
44127;BME280;29786;50.798;7.302;2022-09-09T03:42:32;98550;;;16.06;100
44127;BME280;29786;50.798;7.302;2022-09-09T03:43:32;98560;;;16.08;100
44127;BME280;29786;50.798;7.302;2022-09-09T03:44:32;98560;;;16.08;100
44127;BME280;29786;50.798;7.302;2022-09-09T03:45:32;98560;;;16.08;100
44127;BME280;29786;50.798;7.302;2022-09-09T03:46:32;98560;;;16.09;100
44127;BME280;29786;50.798;7.302;2022-09-09T03:47:32;98560;;;16.12;100
44127;BME280;29786;50.798;7.302;2022-09-09T03:48:32;98560;;;16.17;100
44127;BME280;29786;50.798;7.302;2022-09-09T03:49:32;98560;;;16.26;100
44127;BME280;29786;50.798;7.302;2022-09-09T03:50:32;98560;;;16.29;100
44127;BME280;29786;50.798;7.302;2022-09-09T03:51:32;98560;;;16.29;100
44127;BME280;29786;50.798;7.302;2022-09-09T03:52:33;98560;;;16.24;100
44127;BME280;29786;50.798;7.302;2022-09-09T03:53:32;98560;;;16.19;100
44127;BME280;29786;50.798;7.302;2022-09-09T03:54:32;98560;;;16.14;100
44127;BME280;29786;50.798;7.302;2022-09-09T03:55:32;98560;;;16.02;100
44127;BME280;29786;50.798;7.302;2022-09-09T03:56:32;98560;;;16.02;100
44127;BME280;29786;50.798;7.302;2022-09-09T03:57:32;98560;;;15.99;100
44127;BME280;29786;50.798;7.302;2022-09-09T03:58:32;98560;;;16.01;100
44127;BME280;29786;50.798;7.302;2022-09-09T03:59:32;98560;;;15.99;100
44127;BME280;29786;50.798;7.302;2022-09-09T04:00:32;98560;;;16.04;100
44127;BME280;29786;50.798;7.302;2022-09-09T04:01:32;98560;;;16.06;100
44127;BME280;29786;50.798;7.302;2022-09-09T04:02:32;98560;;;16.07;100
44127;BME280;29786;50.798;7.302;2022-09-09T04:03:32;98560;;;16.08;100
44127;BME280;29786;50.798;7.302;2022-09-09T04:04:32;98570;;;16.11;100
44127;BME280;29786;50.798;7.302;2022-09-09T04:05:32;98560;;;16.01;100
44127;BME280;29786;50.798;7.302;2022-09-09T04:06:32;98560;;;16.03;100
44127;BME280;29786;50.798;7.302;2022-09-09T04:07:32;98560;;;16.02;100
44127;BME280;29786;50.798;7.302;2022-09-09T04:08:32;98560;;;16.04;100
44127;BME280;29786;50.798;7.302;2022-09-09T04:09:32;98560;;;16.03;100
44127;BME280;29786;50.798;7.302;2022-09-09T04:10:32;98550;;;16.03;100
44127;BME280;29786;50.798;7.302;2022-09-09T04:11:32;98550;;;16.06;100
44127;BME280;29786;50.798;7.302;2022-09-09T04:12:32;98550;;;16.04;100
44127;BME280;29786;50.798;7.302;2022-09-09T04:13:33;98550;;;16.12;100
44127;BME280;29786;50.798;7.302;2022-09-09T04:14:32;98550;;;16.08;100
44127;BME280;29786;50.798;7.302;2022-09-09T04:15:32;98550;;;16.07;100
44127;BME280;29786;50.798;7.302;2022-09-09T04:16:32;98550;;;16.04;100
44127;BME280;29786;50.798;7.302;2022-09-09T04:17:32;98550;;;16.01;100
44127;BME280;29786;50.798;7.302;2022-09-09T04:18:32;98550;;;16.01;100
44127;BME280;29786;50.798;7.302;2022-09-09T04:19:32;98550;;;16.03;100
44127;BME280;29786;50.798;7.302;2022-09-09T04:20:32;98550;;;16.03;100
44127;BME280;29786;50.798;7.302;2022-09-09T04:21:32;98550;;;16.04;100
44127;BME280;29786;50.798;7.302;2022-09-09T04:22:32;98550;;;16.09;100
44127;BME280;29786;50.798;7.302;2022-09-09T04:23:32;98560;;;16.12;100
44127;BME280;29786;50.798;7.302;2022-09-09T04:24:32;98550;;;16.11;100
44127;BME280;29786;50.798;7.302;2022-09-09T04:25:32;98550;;;16.02;100
44127;BME280;29786;50.798;7.302;2022-09-09T04:26:32;98550;;;16.01;100
44127;BME280;29786;50.798;7.302;2022-09-09T04:27:32;98550;;;15.96;100
44127;BME280;29786;50.798;7.302;2022-09-09T04:28:33;98550;;;16.02;100
44127;BME280;29786;50.798;7.302;2022-09-09T04:29:32;98550;;;16.04;100
44127;BME280;29786;50.798;7.302;2022-09-09T04:30:32;98540;;;16.02;100
44127;BME280;29786;50.798;7.302;2022-09-09T04:31:32;98550;;;16.03;100
44127;BME280;29786;50.798;7.302;2022-09-09T04:32:32;98550;;;16.03;100
44127;BME280;29786;50.798;7.302;2022-09-09T04:33:32;98560;;;15.96;100
44127;BME280;29786;50.798;7.302;2022-09-09T04:34:32;98560;;;15.97;100
44127;BME280;29786;50.798;7.302;2022-09-09T04:35:32;98560;;;16.01;100
44127;BME280;29786;50.798;7.302;2022-09-09T04:36:32;98560;;;16.02;100
44127;BME280;29786;50.798;7.302;2022-09-09T04:37:32;98570;;;15.97;100
44127;BME280;29786;50.798;7.302;2022-09-09T04:38:32;98560;;;16.04;100
44127;BME280;29786;50.798;7.302;2022-09-09T04:39:32;98570;;;16.09;100
44127;BME280;29786;50.798;7.302;2022-09-09T04:40:32;98570;;;16.04;100
44127;BME280;29786;50.798;7.302;2022-09-09T04:41:32;98570;;;16.09;100
44127;BME280;29786;50.798;7.302;2022-09-09T04:42:34;98570;;;16.07;100
44127;BME280;29786;50.798;7.302;2022-09-09T04:43:32;98570;;;16.06;100
44127;BME280;29786;50.798;7.302;2022-09-09T04:44:32;98570;;;16.1;100
44127;BME280;29786;50.798;7.302;2022-09-09T04:45:32;98570;;;16.12;100
44127;BME280;29786;50.798;7.302;2022-09-09T04:46:32;98570;;;16.11;100
44127;BME280;29786;50.798;7.302;2022-09-09T04:47:33;98570;;;16.16;100
44127;BME280;29786;50.798;7.302;2022-09-09T04:48:32;98570;;;16.11;100
44127;BME280;29786;50.798;7.302;2022-09-09T04:49:32;98570;;;16.04;100
44127;BME280;29786;50.798;7.302;2022-09-09T04:50:32;98570;;;16.02;100
44127;BME280;29786;50.798;7.302;2022-09-09T04:51:32;98570;;;16.04;100
44127;BME280;29786;50.798;7.302;2022-09-09T04:52:33;98570;;;16.02;100
44127;BME280;29786;50.798;7.302;2022-09-09T04:53:32;98570;;;15.98;100
44127;BME280;29786;50.798;7.302;2022-09-09T04:54:32;98570;;;15.96;100
44127;BME280;29786;50.798;7.302;2022-09-09T04:55:32;98570;;;15.94;100
44127;BME280;29786;50.798;7.302;2022-09-09T04:56:32;98580;;;15.93;100
44127;BME280;29786;50.798;7.302;2022-09-09T04:57:32;98580;;;15.93;100
44127;BME280;29786;50.798;7.302;2022-09-09T04:58:32;98580;;;15.95;100
44127;BME280;29786;50.798;7.302;2022-09-09T04:59:32;98580;;;15.93;100
44127;BME280;29786;50.798;7.302;2022-09-09T05:00:32;98580;;;15.98;100
44127;BME280;29786;50.798;7.302;2022-09-09T05:01:32;98580;;;15.94;100
44127;BME280;29786;50.798;7.302;2022-09-09T05:02:32;98580;;;15.87;100
44127;BME280;29786;50.798;7.302;2022-09-09T05:03:32;98580;;;15.92;100
44127;BME280;29786;50.798;7.302;2022-09-09T05:04:32;98580;;;15.91;100
44127;BME280;29786;50.798;7.302;2022-09-09T05:05:32;98580;;;15.91;100
44127;BME280;29786;50.798;7.302;2022-09-09T05:06:32;98590;;;15.95;100
44127;BME280;29786;50.798;7.302;2022-09-09T05:07:32;98590;;;15.94;100
44127;BME280;29786;50.798;7.302;2022-09-09T05:08:32;98580;;;15.89;100
44127;BME280;29786;50.798;7.302;2022-09-09T05:09:32;98580;;;15.9;100
44127;BME280;29786;50.798;7.302;2022-09-09T05:10:32;98590;;;15.9;100
44127;BME280;29786;50.798;7.302;2022-09-09T05:11:32;98590;;;15.93;100
44127;BME280;29786;50.798;7.302;2022-09-09T05:12:32;98590;;;15.94;100
44127;BME280;29786;50.798;7.302;2022-09-09T05:13:32;98590;;;16.03;100
44127;BME280;29786;50.798;7.302;2022-09-09T05:14:32;98590;;;16.11;100
44127;BME280;29786;50.798;7.302;2022-09-09T05:15:32;98590;;;16.12;100
44127;BME280;29786;50.798;7.302;2022-09-09T05:16:32;98590;;;15.99;100
44127;BME280;29786;50.798;7.302;2022-09-09T05:17:32;98590;;;16.01;100
44127;BME280;29786;50.798;7.302;2022-09-09T05:18:32;98590;;;15.98;100
44127;BME280;29786;50.798;7.302;2022-09-09T05:19:32;98590;;;15.94;100
44127;BME280;29786;50.798;7.302;2022-09-09T05:20:32;98590;;;15.93;100
44127;BME280;29786;50.798;7.302;2022-09-09T05:21:32;98580;;;15.94;100
44127;BME280;29786;50.798;7.302;2022-09-09T05:22:32;98580;;;15.97;100
44127;BME280;29786;50.798;7.302;2022-09-09T05:23:32;98580;;;15.96;100
44127;BME280;29786;50.798;7.302;2022-09-09T05:24:32;98580;;;15.92;100
44127;BME280;29786;50.798;7.302;2022-09-09T05:25:32;98580;;;15.93;100
44127;BME280;29786;50.798;7.302;2022-09-09T05:26:32;98570;;;15.95;100
44127;BME280;29786;50.798;7.302;2022-09-09T05:27:33;98580;;;15.98;100
44127;BME280;29786;50.798;7.302;2022-09-09T05:28:33;98580;;;15.97;100
44127;BME280;29786;50.798;7.302;2022-09-09T05:29:32;98580;;;15.98;100
44127;BME280;29786;50.798;7.302;2022-09-09T05:30:32;98580;;;16.02;100
44127;BME280;29786;50.798;7.302;2022-09-09T05:31:32;98580;;;16.03;100
44127;BME280;29786;50.798;7.302;2022-09-09T05:32:32;98580;;;16.02;100
44127;BME280;29786;50.798;7.302;2022-09-09T05:33:32;98580;;;15.99;100
44127;BME280;29786;50.798;7.302;2022-09-09T05:34:32;98580;;;16.02;100
44127;BME280;29786;50.798;7.302;2022-09-09T05:35:32;98580;;;15.97;100
44127;BME280;29786;50.798;7.302;2022-09-09T05:36:32;98570;;;16.01;100
44127;BME280;29786;50.798;7.302;2022-09-09T05:37:32;98580;;;16.12;100
44127;BME280;29786;50.798;7.302;2022-09-09T05:38:32;98580;;;16.07;100
44127;BME280;29786;50.798;7.302;2022-09-09T05:39:32;98580;;;16.06;100
44127;BME280;29786;50.798;7.302;2022-09-09T05:40:32;98570;;;15.99;100
44127;BME280;29786;50.798;7.302;2022-09-09T05:41:32;98580;;;15.94;100
44127;BME280;29786;50.798;7.302;2022-09-09T05:42:32;98580;;;15.91;100